Time;durP1;ratioP1;P1;durP2;ratioP2;P2;SDS_P1;SDS_P2;PMS_P1;PMS_P2;Temp;Humidity;BMP_temperature;BMP_pressure;BME280_temperature;BME280_humidity;BME280_pressure;Samples;Min_cycle;Max_cycle;Signal;HPM_P1;HPM_P2
2021/11/29 00:00:46;;;;;;;24.67;9.90;;;8.90;94.60;;;;;;5093588;28;20065;-65
2021/11/29 00:03:14;;;;;;;31.88;9.82;;;8.90;94.60;;;;;;5093202;28;20024;-65
2021/11/29 00:05:40;;;;;;;20.42;9.07;;;8.90;94.60;;;;;;5093138;28;20036;-65
2021/11/29 00:08:06;;;;;;;16.85;8.68;;;8.90;94.70;;;;;;5093132;28;20024;-65
2021/11/29 00:10:32;;;;;;;19.38;9.90;;;8.90;94.70;;;;;;5093096;28;20382;-65
2021/11/29 00:12:58;;;;;;;18.25;8.55;;;8.90;94.70;;;;;;5093042;28;20383;-65
2021/11/29 00:15:25;;;;;;;19.17;9.25;;;8.90;94.70;;;;;;5093064;28;20435;-65
2021/11/29 00:17:51;;;;;;;16.85;8.63;;;8.90;94.70;;;;;;5092979;28;20103;-65
2021/11/29 00:20:18;;;;;;;17.77;8.55;;;8.90;94.70;;;;;;5092933;28;20108;-67
2021/11/29 00:22:45;;;;;;;19.38;7.60;;;8.90;94.70;;;;;;5092892;28;20027;-65
2021/11/29 00:25:11;;;;;;;17.08;7.82;;;8.90;94.80;;;;;;5092871;28;20024;-65
2021/11/29 00:27:38;;;;;;;27.70;8.57;;;8.90;94.80;;;;;;5092868;28;20058;-65
2021/11/29 00:30:10;;;;;;;15.27;8.18;;;8.90;94.80;;;;;;5093270;28;20095;-65
2021/11/29 00:32:37;;;;;;;31.52;8.70;;;8.90;94.80;;;;;;5092697;28;20023;-66
2021/11/29 00:35:03;;;;;;;16.67;7.85;;;8.90;94.80;;;;;;5092618;28;20108;-65
2021/11/29 00:37:29;;;;;;;15.88;8.13;;;8.90;94.80;;;;;;5092570;28;20028;-65
2021/11/29 00:39:55;;;;;;;18.42;8.63;;;8.90;94.80;;;;;;5092646;28;20028;-65
2021/11/29 00:42:21;;;;;;;16.35;7.80;;;8.90;94.80;;;;;;5092318;28;20024;-65
2021/11/29 00:44:47;;;;;;;23.80;8.52;;;8.90;94.80;;;;;;5092408;28;20390;-65
2021/11/29 00:47:13;;;;;;;30.83;9.57;;;8.90;94.70;;;;;;5092420;28;20153;-66
2021/11/29 00:49:39;;;;;;;22.85;10.65;;;9.00;94.60;;;;;;5092456;28;20374;-66
2021/11/29 00:52:05;;;;;;;16.20;9.43;;;9.00;94.60;;;;;;5092431;28;20107;-66
2021/11/29 00:54:30;;;;;;;20.55;9.63;;;8.90;94.50;;;;;;5092353;28;20115;-65
2021/11/29 00:56:56;;;;;;;24.25;11.13;;;8.90;94.50;;;;;;5092411;28;20602;-65
2021/11/29 00:59:22;;;;;;;23.23;11.18;;;8.90;94.60;;;;;;5092285;28;20039;-65
2021/11/29 01:01:47;;;;;;;20.85;11.65;;;8.90;94.60;;;;;;5092333;28;20050;-66
2021/11/29 01:04:13;;;;;;;17.83;9.73;;;8.90;94.50;;;;;;5092532;28;20024;-66
2021/11/29 01:06:39;;;;;;;17.35;9.90;;;8.90;94.50;;;;;;5090006;28;20059;-66
2021/11/29 01:09:05;;;;;;;21.10;11.93;;;8.90;94.50;;;;;;5092114;28;20537;-65
2021/11/29 01:11:31;;;;;;;24.90;13.02;;;8.80;94.40;;;;;;5092148;28;20429;-65
2021/11/29 01:13:57;;;;;;;29.05;13.20;;;8.90;94.30;;;;;;5092000;28;20028;-66
2021/11/29 01:16:23;;;;;;;22.75;12.45;;;8.80;94.30;;;;;;5091836;28;20374;-66
2021/11/29 01:18:49;;;;;;;50.25;14.25;;;8.80;94.40;;;;;;5091837;28;20073;-66
2021/11/29 01:21:15;;;;;;;24.42;14.00;;;8.70;94.50;;;;;;5092186;28;20036;-65
2021/11/29 01:23:41;;;;;;;23.10;13.52;;;8.80;94.50;;;;;;5091651;28;20028;-65
2021/11/29 01:26:07;;;;;;;25.10;13.48;;;8.70;94.60;;;;;;5091496;28;20032;-65
2021/11/29 01:28:33;;;;;;;23.52;13.65;;;8.80;94.70;;;;;;5091754;28;20077;-66
2021/11/29 01:30:59;;;;;;;24.23;14.40;;;8.80;94.70;;;;;;5091661;28;20418;-65
2021/11/29 01:33:24;;;;;;;25.83;13.85;;;8.80;94.80;;;;;;5091789;28;20031;-66
2021/11/29 01:35:50;;;;;;;24.60;13.88;;;8.80;94.80;;;;;;5091522;28;20040;-65
2021/11/29 01:38:17;;;;;;;27.58;14.05;;;8.90;94.90;;;;;;5091587;28;20510;-66
2021/11/29 01:40:42;;;;;;;27.50;13.85;;;8.90;95.00;;;;;;5091451;28;20032;-65
2021/11/29 01:43:13;;;;;;;37.40;15.23;;;8.90;95.00;;;;;;5091576;28;20051;-68
2021/11/29 01:45:48;;;;;;;24.50;14.45;;;9.00;95.00;;;;;;5091326;28;20020;-65
2021/11/29 01:48:15;;;;;;;27.02;14.73;;;9.00;95.00;;;;;;5091593;28;20016;-66
2021/11/29 01:50:43;;;;;;;26.65;13.90;;;9.00;95.10;;;;;;5091491;28;20024;-66
2021/11/29 01:53:10;;;;;;;25.90;14.38;;;9.00;95.10;;;;;;5091448;28;20024;-66
2021/11/29 01:55:37;;;;;;;30.70;16.17;;;9.00;95.20;;;;;;5091323;28;20115;-65
2021/11/29 01:58:04;;;;;;;24.67;13.48;;;9.10;95.30;;;;;;5091399;28;20020;-66
2021/11/29 02:00:32;;;;;;;28.50;14.88;;;9.10;95.20;;;;;;5091304;28;20027;-65
2021/11/29 02:02:58;;;;;;;26.75;14.07;;;9.10;95.30;;;;;;5091333;28;20028;-66
2021/11/29 02:05:26;;;;;;;25.35;13.15;;;9.10;95.30;;;;;;5091331;28;20081;-65
2021/11/29 02:07:52;;;;;;;25.95;14.13;;;9.20;95.30;;;;;;5091191;28;20031;-65
2021/11/29 02:10:21;;;;;;;24.13;13.30;;;9.20;95.30;;;;;;5091253;28;20093;-65
2021/11/29 02:12:47;;;;;;;21.70;12.60;;;9.20;95.30;;;;;;5091320;28;20024;-65
2021/11/29 02:15:14;;;;;;;20.40;11.90;;;9.30;95.20;;;;;;5091314;28;20029;-65
2021/11/29 02:17:41;;;;;;;20.02;11.75;;;9.30;95.30;;;;;;5092940;28;20541;-66
2021/11/29 02:20:08;;;;;;;24.27;13.88;;;9.30;95.30;;;;;;5095390;28;20024;-66
2021/11/29 02:22:34;;;;;;;24.42;14.07;;;9.40;95.40;;;;;;5095368;28;20055;-65
2021/11/29 02:25:00;;;;;;;23.13;13.50;;;9.40;95.30;;;;;;5095187;28;20052;-65
2021/11/29 02:27:26;;;;;;;23.67;14.60;;;9.40;95.30;;;;;;5095309;28;20032;-65
2021/11/29 02:29:56;;;;;;;26.08;15.20;;;9.50;95.40;;;;;;5093711;28;20027;-66
2021/11/29 02:32:22;;;;;;;24.55;14.50;;;9.50;95.30;;;;;;5095222;28;20099;-64
2021/11/29 02:34:48;;;;;;;23.90;14.38;;;9.50;95.20;;;;;;5095108;28;20024;-65
2021/11/29 02:37:15;;;;;;;25.35;14.52;;;9.60;95.10;;;;;;5095096;28;20031;-66
2021/11/29 02:39:42;;;;;;;23.25;14.30;;;9.60;95.00;;;;;;5093673;28;20020;-65
2021/11/29 02:42:11;;;;;;;22.65;14.27;;;9.60;95.10;;;;;;5095252;28;20032;-65
2021/11/29 02:44:37;;;;;;;21.23;13.65;;;9.60;95.10;;;;;;5094670;28;20036;-65
2021/11/29 02:47:04;;;;;;;25.05;14.75;;;9.60;95.10;;;;;;5093484;28;20056;-66
2021/11/29 02:49:30;;;;;;;22.05;13.23;;;9.60;95.00;;;;;;5094829;28;20354;-65
2021/11/29 02:51:58;;;;;;;21.15;13.45;;;9.60;95.00;;;;;;5094772;28;20027;-66
2021/11/29 02:54:31;;;;;;;21.13;13.00;;;9.60;94.90;;;;;;5094607;28;20032;-65
2021/11/29 02:56:58;;;;;;;;;;;9.60;94.80;;;;;;5095155;28;20043;-65
2021/11/29 02:59:30;;;;;;;22.98;13.75;;;9.60;94.60;;;;;;5094738;28;20062;-66
2021/11/29 03:02:02;;;;;;;23.73;13.57;;;9.50;94.60;;;;;;5094603;28;20081;-66
2021/11/29 03:04:30;;;;;;;21.27;13.05;;;9.50;94.60;;;;;;5094517;28;20024;-66
2021/11/29 03:06:57;;;;;;;23.48;13.90;;;9.50;94.70;;;;;;5094512;28;20059;-66
2021/11/29 03:09:23;;;;;;;20.52;12.30;;;9.40;94.60;;;;;;5094543;28;20020;-65
2021/11/29 03:11:50;;;;;;;23.52;13.90;;;9.50;94.70;;;;;;5094416;28;20065;-66
2021/11/29 03:14:16;;;;;;;21.02;12.52;;;9.40;94.70;;;;;;5094386;28;20016;-66
2021/11/29 03:16:42;;;;;;;19.42;12.05;;;9.50;94.80;;;;;;5094247;28;20514;-65
2021/11/29 03:19:08;;;;;;;18.75;12.18;;;9.50;94.80;;;;;;5093985;28;20062;-66
2021/11/29 03:21:34;;;;;;;19.48;11.60;;;9.50;94.80;;;;;;5094253;28;20038;-66
2021/11/29 03:24:03;;;;;;;17.30;11.10;;;9.50;95.00;;;;;;5094140;28;20036;-65
2021/11/29 03:26:30;;;;;;;18.27;10.93;;;9.50;94.70;;;;;;5093991;28;20463;-65
2021/11/29 03:28:59;;;;;;;18.35;10.60;;;9.50;94.70;;;;;;5092971;28;20036;-65
2021/11/29 03:31:27;;;;;;;19.80;11.90;;;9.50;94.70;;;;;;5094073;28;20027;-65
2021/11/29 03:33:57;;;;;;;18.90;11.30;;;9.50;94.70;;;;;;5093873;28;20024;-65
2021/11/29 03:36:24;;;;;;;18.83;12.50;;;9.50;94.60;;;;;;5093924;28;20020;-66
2021/11/29 03:38:50;;;;;;;20.23;12.27;;;9.40;94.60;;;;;;5093958;28;20477;-65
2021/11/29 03:41:16;;;;;;;21.02;12.73;;;9.40;94.60;;;;;;5093752;28;20028;-65
2021/11/29 03:43:42;;;;;;;20.45;12.55;;;9.50;94.70;;;;;;5093745;28;20111;-65
2021/11/29 03:46:08;;;;;;;26.15;16.58;;;9.50;94.70;;;;;;5093554;28;20103;-65
2021/11/29 03:48:34;;;;;;;28.23;16.42;;;9.50;94.70;;;;;;5093536;28;20024;-65
2021/11/29 03:51:00;;;;;;;22.85;14.10;;;9.50;94.80;;;;;;5093555;28;20020;-66
2021/11/29 03:53:25;;;;;;;21.33;13.23;;;9.60;94.80;;;;;;5093629;28;20024;-65
2021/11/29 03:55:51;;;;;;;20.98;13.25;;;9.60;94.80;;;;;;5092178;28;20479;-65
2021/11/29 03:58:17;;;;;;;19.13;12.57;;;9.60;94.80;;;;;;5093507;28;20038;-65
2021/11/29 04:00:44;;;;;;;19.10;12.25;;;9.70;94.80;;;;;;5093351;28;20032;-66
2021/11/29 04:03:10;;;;;;;20.08;13.05;;;9.70;94.70;;;;;;5093354;28;20020;-65
2021/11/29 04:05:36;;;;;;;19.98;13.23;;;9.70;94.70;;;;;;5093351;28;20111;-67
2021/11/29 04:08:02;;;;;;;20.65;13.60;;;9.70;94.70;;;;;;5093236;28;20023;-66
2021/11/29 04:10:28;;;;;;;21.38;14.02;;;9.70;94.70;;;;;;5093240;28;20078;-66
2021/11/29 04:12:54;;;;;;;20.60;13.00;;;9.70;94.70;;;;;;5093478;28;20074;-65
2021/11/29 04:15:20;;;;;;;22.30;14.80;;;9.80;94.70;;;;;;5093448;28;20067;-66
2021/11/29 04:17:46;;;;;;;22.02;14.05;;;9.80;94.70;;;;;;5093012;28;20498;-66
2021/11/29 04:20:16;;;;;;;23.55;15.63;;;9.90;94.60;;;;;;5092984;28;20451;-65
2021/11/29 04:22:45;;;;;;;22.15;14.75;;;9.90;94.50;;;;;;5093294;28;20439;-65
2021/11/29 04:25:14;;;;;;;21.92;14.90;;;9.90;94.50;;;;;;5092806;28;20107;-65
2021/11/29 04:27:42;;;;;;;24.23;16.70;;;9.90;94.50;;;;;;5092842;28;20417;-65
2021/11/29 04:30:13;;;;;;;25.88;16.90;;;9.90;94.50;;;;;;5092805;28;20031;-65
2021/11/29 04:32:40;;;;;;;24.30;16.67;;;9.90;94.60;;;;;;5092907;28;20463;-65
2021/11/29 04:35:06;;;;;;;24.45;16.95;;;9.90;94.50;;;;;;5092821;28;20028;-65
2021/11/29 04:37:32;;;;;;;22.77;15.65;;;9.90;94.50;;;;;;5092821;28;20471;-65
2021/11/29 04:39:58;;;;;;;25.63;17.73;;;10.00;94.60;;;;;;5092462;28;20033;-65
2021/11/29 04:42:24;;;;;;;25.35;16.52;;;10.00;94.50;;;;;;5092674;28;20115;-65
2021/11/29 04:44:50;;;;;;;26.23;17.48;;;10.00;94.40;;;;;;5092571;28;20035;-65
2021/11/29 04:47:15;;;;;;;25.65;16.63;;;10.00;94.40;;;;;;5092534;28;20095;-65
2021/11/29 04:49:41;;;;;;;27.35;17.98;;;10.00;94.30;;;;;;5092490;28;20024;-65
2021/11/29 04:52:07;;;;;;;27.35;17.63;;;10.00;94.30;;;;;;5092460;28;20024;-66
2021/11/29 04:54:33;;;;;;;26.90;18.95;;;10.00;94.30;;;;;;5092406;28;20044;-65
2021/11/29 04:56:58;;;;;;;32.15;19.60;;;10.00;94.30;;;;;;5092651;28;20064;-65
2021/11/29 04:59:24;;;;;;;29.70;19.67;;;10.00;94.40;;;;;;5092642;28;20016;-65
2021/11/29 05:01:50;;;;;;;30.52;20.10;;;10.10;94.50;;;;;;5092305;28;20069;-66
2021/11/29 05:04:16;;;;;;;29.92;18.73;;;10.10;94.60;;;;;;5092220;28;20055;-66
2021/11/29 05:06:42;;;;;;;30.48;19.83;;;10.10;94.60;;;;;;5092098;28;20058;-66
2021/11/29 05:09:09;;;;;;;28.33;18.33;;;10.20;94.50;;;;;;5092013;28;20474;-65
2021/11/29 05:11:35;;;;;;;28.20;19.00;;;10.20;94.50;;;;;;5091909;28;20031;-65
2021/11/29 05:14:02;;;;;;;29.40;19.33;;;10.20;94.40;;;;;;5091882;28;20020;-65
2021/11/29 05:16:28;;;;;;;28.88;19.33;;;10.30;94.50;;;;;;5091897;28;20047;-66
2021/11/29 05:18:54;;;;;;;31.08;20.17;;;10.30;94.50;;;;;;5091947;28;20032;-66
2021/11/29 05:21:20;;;;;;;28.75;18.92;;;10.40;94.60;;;;;;5091883;28;20035;-66
2021/11/29 05:23:47;;;;;;;27.85;18.58;;;10.40;94.60;;;;;;5091981;28;20020;-65
2021/11/29 05:26:17;;;;;;;25.80;17.35;;;10.50;94.60;;;;;;5091634;28;20475;-66
2021/11/29 05:28:43;;;;;;;29.52;18.83;;;10.60;94.60;;;;;;5091902;28;20459;-66
2021/11/29 05:31:09;;;;;;;27.80;18.20;;;10.60;94.50;;;;;;5091701;28;20106;-65
2021/11/29 05:33:35;;;;;;;26.42;17.73;;;10.60;94.40;;;;;;5091787;28;20066;-65
2021/11/29 05:36:00;;;;;;;24.00;16.40;;;10.70;94.30;;;;;;5091440;28;20024;-65
2021/11/29 05:38:26;;;;;;;23.65;15.85;;;10.70;94.30;;;;;;5091536;28;20024;-67
2021/11/29 05:40:52;;;;;;;25.17;16.90;;;10.70;94.30;;;;;;5091917;28;20077;-66
2021/11/29 05:43:18;;;;;;;25.33;16.80;;;10.80;94.40;;;;;;5089857;28;20024;-66
2021/11/29 05:45:44;;;;;;;26.55;16.50;;;10.80;94.40;;;;;;5091409;28;20384;-68
2021/11/29 05:48:11;;;;;;;22.48;15.88;;;10.80;94.40;;;;;;5091463;28;20051;-65
2021/11/29 05:50:37;;;;;;;23.52;16.00;;;10.90;94.40;;;;;;5091408;28;20028;-66
2021/11/29 05:53:04;;;;;;;22.13;15.18;;;10.90;94.40;;;;;;5090947;28;20097;-66
2021/11/29 05:55:30;;;;;;;22.33;16.20;;;11.00;94.40;;;;;;5091112;28;20075;-66
2021/11/29 05:57:56;;;;;;;26.63;16.80;;;11.10;94.40;;;;;;5091260;28;20024;-66
2021/11/29 06:00:22;;;;;;;23.55;15.80;;;11.10;94.50;;;;;;5091283;28;20035;-66
2021/11/29 06:02:48;;;;;;;20.67;14.68;;;11.10;94.40;;;;;;5091383;28;20080;-66
2021/11/29 06:05:14;;;;;;;23.20;15.18;;;11.20;94.50;;;;;;5090021;28;20131;-66
2021/11/29 06:07:40;;;;;;;25.92;15.65;;;11.20;94.50;;;;;;5091317;28;20016;-65
2021/11/29 06:10:07;;;;;;;23.38;15.80;;;11.20;94.50;;;;;;5091181;28;20020;-66
2021/11/29 06:12:33;;;;;;;26.70;16.52;;;11.30;94.50;;;;;;5091095;28;20095;-65
2021/11/29 06:14:59;;;;;;;25.30;16.30;;;11.30;94.50;;;;;;5091031;28;20099;-66
2021/11/29 06:17:25;;;;;;;22.77;15.90;;;11.30;94.50;;;;;;5090873;28;20046;-67
2021/11/29 06:19:50;;;;;;;24.73;15.32;;;11.40;94.50;;;;;;5090975;28;20028;-66
2021/11/29 06:22:16;;;;;;;24.52;16.38;;;11.40;94.50;;;;;;5091004;28;20081;-66
2021/11/29 06:24:42;;;;;;;26.23;16.63;;;11.40;94.50;;;;;;5090731;28;20031;-67
2021/11/29 06:27:07;;;;;;;26.63;17.65;;;11.50;94.40;;;;;;5090881;28;20016;-65
2021/11/29 06:29:33;;;;;;;27.90;17.95;;;11.50;94.50;;;;;;5090794;28;20099;-67
2021/11/29 06:31:59;;;;;;;32.38;19.95;;;11.50;94.50;;;;;;5090902;28;20020;-67
2021/11/29 06:34:25;;;;;;;38.13;22.23;;;11.50;94.50;;;;;;5091010;28;20032;-67
2021/11/29 06:36:52;;;;;;;34.85;20.63;;;11.60;94.60;;;;;;5090997;28;20031;-67
2021/11/29 06:39:22;;;;;;;31.38;19.55;;;11.60;94.50;;;;;;5091380;28;20047;-67
2021/11/29 06:41:48;;;;;;;29.33;18.33;;;11.60;94.40;;;;;;5090863;28;20107;-67
2021/11/29 06:44:14;;;;;;;30.13;18.88;;;11.60;94.40;;;;;;5090941;28;20027;-66
2021/11/29 06:46:40;;;;;;;33.08;20.60;;;11.70;94.50;;;;;;5090791;28;20533;-67
2021/11/29 06:49:05;;;;;;;31.42;19.50;;;11.70;94.40;;;;;;5089286;28;20150;-66
2021/11/29 06:51:33;;;;;;;33.42;20.38;;;11.70;94.40;;;;;;5090847;28;20491;-66
2021/11/29 06:54:00;;;;;;;42.20;22.90;;;11.70;94.40;;;;;;5090604;28;20040;-67
2021/11/29 06:56:26;;;;;;;35.42;23.20;;;11.70;94.40;;;;;;5090843;28;20097;-67
2021/11/29 06:58:52;;;;;;;34.33;20.60;;;11.80;94.30;;;;;;5090830;28;20103;-67
2021/11/29 07:01:18;;;;;;;32.28;19.73;;;11.80;94.30;;;;;;5090625;28;20115;-67
2021/11/29 07:03:45;;;;;;;31.85;19.90;;;11.80;94.40;;;;;;5089543;28;20040;-67
2021/11/29 07:06:11;;;;;;;30.52;20.42;;;11.80;94.30;;;;;;5094304;28;20073;-67
2021/11/29 07:08:37;;;;;;;33.08;21.23;;;11.80;94.20;;;;;;5094200;28;20482;-66
2021/11/29 07:11:03;;;;;;;29.88;20.88;;;11.90;94.10;;;;;;5094369;28;20024;-67
2021/11/29 07:13:29;;;;;;;29.08;20.10;;;11.80;94.10;;;;;;5094198;28;20530;-66
2021/11/29 07:15:55;;;;;;;29.67;20.30;;;11.90;94.00;;;;;;5094368;28;20035;-68
2021/11/29 07:18:22;;;;;;;29.90;20.25;;;11.90;94.00;;;;;;5092449;28;20466;-66
2021/11/29 07:20:48;;;;;;;29.92;20.17;;;11.80;93.90;;;;;;5093961;28;20099;-67
2021/11/29 07:23:14;;;;;;;29.25;19.73;;;11.80;93.90;;;;;;5093761;28;20034;-67
2021/11/29 07:25:40;;;;;;;26.95;17.77;;;11.80;93.80;;;;;;5093777;28;20024;-67
2021/11/29 07:28:06;;;;;;;29.65;19.08;;;11.90;93.90;;;;;;5093693;28;20036;-67
2021/11/29 07:30:32;;;;;;;28.13;19.25;;;11.90;93.90;;;;;;5093581;28;20081;-66
2021/11/29 07:32:58;;;;;;;28.17;19.58;;;11.90;93.90;;;;;;5093401;28;20390;-67
2021/11/29 07:35:27;;;;;;;30.10;18.77;;;11.90;93.90;;;;;;5093614;28;20089;-67
2021/11/29 07:37:53;;;;;;;27.25;18.13;;;11.80;93.90;;;;;;5093039;28;20031;-67
2021/11/29 07:40:20;;;;;;;28.67;18.30;;;11.90;94.00;;;;;;5092973;28;20077;-67
2021/11/29 07:42:45;;;;;;;26.63;18.13;;;11.90;94.00;;;;;;5093183;28;20475;-67
2021/11/29 07:45:12;;;;;;;27.20;18.67;;;11.90;94.00;;;;;;5093439;28;20031;-66
2021/11/29 07:47:43;;;;;;;28.15;18.67;;;12.00;94.00;;;;;;5093434;28;20039;-67
2021/11/29 07:50:14;;;;;;;27.02;18.75;;;12.10;94.10;;;;;;5093089;28;20408;-67
2021/11/29 07:52:41;;;;;;;29.40;19.80;;;12.10;94.00;;;;;;5093657;28;20035;-67
2021/11/29 07:55:11;;;;;;;29.30;19.02;;;12.10;93.70;;;;;;5093406;28;20099;-67
2021/11/29 07:57:38;;;;;;;27.23;18.63;;;12.20;93.70;;;;;;5093532;28;20156;-66
2021/11/29 08:00:10;;;;;;;26.67;18.25;;;12.30;93.70;;;;;;5093155;28;20031;-67
2021/11/29 08:02:36;;;;;;;27.58;19.05;;;12.30;93.40;;;;;;5093227;28;20027;-67
2021/11/29 08:05:02;;;;;;;27.85;19.42;;;12.40;93.20;;;;;;5093175;28;20501;-68
2021/11/29 08:07:29;;;;;;;26.40;17.35;;;12.40;92.90;;;;;;5093053;28;20039;-67
2021/11/29 08:09:54;;;;;;;27.70;17.55;;;12.30;92.90;;;;;;5093229;28;20414;-67
2021/11/29 08:12:20;;;;;;;28.17;17.33;;;12.40;92.90;;;;;;5093153;28;20095;-68
2021/11/29 08:14:47;;;;;;;23.55;17.42;;;12.40;92.80;;;;;;5091600;28;20523;-67
2021/11/29 08:17:12;;;;;;;24.08;16.23;;;12.40;92.60;;;;;;5092929;28;20027;-67
2021/11/29 08:19:38;;;;;;;23.55;15.90;;;12.40;92.60;;;;;;5093030;28;20020;-68
2021/11/29 08:22:04;;;;;;;20.70;14.80;;;12.50;92.50;;;;;;5092954;28;20471;-67
2021/11/29 08:24:29;;;;;;;23.50;15.32;;;12.50;92.40;;;;;;5092815;28;20028;-68
2021/11/29 08:26:55;;;;;;;20.70;15.10;;;12.50;92.40;;;;;;5092669;28;20028;-67
2021/11/29 08:29:21;;;;;;;21.65;15.55;;;12.50;92.40;;;;;;5092792;28;20081;-67
2021/11/29 08:31:47;;;;;;;22.65;16.10;;;12.50;92.30;;;;;;5092608;28;20103;-67
2021/11/29 08:34:14;;;;;;;22.13;15.32;;;12.60;92.20;;;;;;5092480;28;20031;-66
2021/11/29 08:36:39;;;;;;;22.63;15.02;;;12.60;92.20;;;;;;5092342;28;20058;-66
2021/11/29 08:39:06;;;;;;;22.05;15.15;;;12.60;92.40;;;;;;5092715;28;20027;-67
2021/11/29 08:41:33;;;;;;;25.27;16.75;;;12.60;92.50;;;;;;5092138;28;20031;-66
2021/11/29 08:44:00;;;;;;;23.83;17.10;;;12.60;92.40;;;;;;5092446;28;20077;-66
2021/11/29 08:46:26;;;;;;;22.23;15.95;;;12.70;92.20;;;;;;5092256;28;20020;-66
2021/11/29 08:48:52;;;;;;;24.98;16.85;;;12.70;92.30;;;;;;5092313;28;20025;-66
2021/11/29 08:51:18;;;;;;;23.33;16.08;;;12.70;92.20;;;;;;5092280;28;20047;-66
2021/11/29 08:53:45;;;;;;;23.75;16.63;;;12.80;92.30;;;;;;5092362;28;20044;-67
2021/11/29 08:56:11;;;;;;;26.33;16.67;;;12.80;92.30;;;;;;5092452;28;20031;-67
2021/11/29 08:58:37;;;;;;;26.10;18.58;;;12.80;92.30;;;;;;5092181;28;20024;-67
2021/11/29 09:01:04;;;;;;;21.75;15.98;;;12.80;91.90;;;;;;5092244;28;20024;-67
2021/11/29 09:03:31;;;;;;;28.45;17.13;;;12.70;92.00;;;;;;5092275;28;20020;-68
2021/11/29 09:05:58;;;;;;;19.48;14.95;;;12.70;91.90;;;;;;5092237;28;20032;-67
2021/11/29 09:08:25;;;;;;;23.08;14.25;;;12.70;92.00;;;;;;5090823;28;20019;-67
2021/11/29 09:10:52;;;;;;;19.80;14.10;;;12.70;92.00;;;;;;5092182;28;20077;-67
2021/11/29 09:13:18;;;;;;;20.15;14.15;;;12.70;92.10;;;;;;5091962;28;20024;-67
2021/11/29 09:15:45;;;;;;;17.98;13.02;;;12.70;92.00;;;;;;5090581;28;20467;-67
2021/11/29 09:18:12;;;;;;;22.73;13.85;;;12.60;92.10;;;;;;5091970;28;20028;-68
2021/11/29 09:20:41;;;;;;;20.60;13.48;;;12.60;92.20;;;;;;5091795;28;20026;-68
2021/11/29 09:23:08;;;;;;;21.92;13.63;;;12.60;92.20;;;;;;5091743;28;20028;-67
2021/11/29 09:25:41;;;;;;;19.90;13.23;;;12.60;92.20;;;;;;5091784;28;20028;-67
2021/11/29 09:28:11;;;;;;;21.60;14.00;;;12.50;92.30;;;;;;5091056;28;20507;-67
2021/11/29 09:30:37;;;;;;;17.63;13.02;;;12.50;92.30;;;;;;5091765;28;20043;-67
2021/11/29 09:33:03;;;;;;;23.88;13.38;;;12.50;92.50;;;;;;5091604;28;20091;-67
2021/11/29 09:35:29;;;;;;;24.10;14.60;;;12.40;92.50;;;;;;5091599;28;20099;-67
2021/11/29 09:37:56;;;;;;;20.70;13.13;;;12.40;92.70;;;;;;5091555;28;20499;-67
2021/11/29 09:40:26;;;;;;;17.63;12.80;;;12.40;92.70;;;;;;5091290;28;20073;-67
2021/11/29 09:42:53;;;;;;;21.35;13.35;;;12.40;92.80;;;;;;5091248;28;20486;-67
2021/11/29 09:45:20;;;;;;;25.83;15.02;;;12.40;92.90;;;;;;5091281;28;20036;-66
2021/11/29 09:47:46;;;;;;;25.25;15.45;;;12.40;92.90;;;;;;5091429;28;20054;-67
2021/11/29 09:50:15;;;;;;;26.83;16.23;;;12.40;93.00;;;;;;5091431;28;20077;-67
2021/11/29 09:52:41;;;;;;;25.20;15.23;;;12.30;93.00;;;;;;5091160;28;20028;-66
2021/11/29 09:55:10;;;;;;;21.95;13.60;;;12.30;93.10;;;;;;5091219;28;20076;-68
2021/11/29 09:57:41;;;;;;;19.08;13.07;;;12.40;93.20;;;;;;5091717;28;20051;-66
2021/11/29 10:00:16;;;;;;;20.65;12.45;;;12.30;93.20;;;;;;5091150;28;20032;-67
2021/11/29 10:02:41;;;;;;;20.77;12.73;;;12.30;93.20;;;;;;5091045;28;20028;-67
2021/11/29 10:05:08;;;;;;;24.45;14.27;;;12.30;93.30;;;;;;5090972;28;20028;-67
2021/11/29 10:07:51;;;;;;;20.08;13.10;;;12.30;93.30;;;;;;5091497;28;20103;-67
2021/11/29 10:10:30;;;;;;;20.63;12.05;;;12.30;93.30;;;;;;5086211;28;20058;-67
2021/11/29 10:13:06;;;;;;;19.20;13.40;;;12.30;93.40;;;;;;5081772;28;20493;-68
2021/11/29 10:15:40;;;;;;;22.40;14.07;;;12.30;93.50;;;;;;5070963;28;20207;-67
2021/11/29 10:18:11;;;;;;;24.63;14.40;;;12.30;93.50;;;;;;5074053;28;20356;-66
2021/11/29 10:21:01;;;;;;;22.77;14.43;;;12.20;93.70;;;;;;5073263;28;20032;-67
2021/11/29 10:23:31;;;;;;;26.45;14.30;;;12.20;93.80;;;;;;5081028;28;20436;-68
2021/11/29 10:25:58;;;;;;;19.23;13.10;;;12.20;93.70;;;;;;5070995;28;20032;-69
2021/11/29 10:28:40;;;;;;;22.80;13.23;;;12.20;93.80;;;;;;5070899;28;20027;-69
2021/11/29 10:31:13;;;;;;;22.60;13.88;;;12.10;93.90;;;;;;5070838;28;20087;-70
2021/11/29 10:33:53;;;;;;;24.10;14.15;;;12.10;94.00;;;;;;5070635;28;20471;-69
2021/11/29 10:36:21;;;;;;;19.58;13.18;;;12.10;94.20;;;;;;5068882;28;20021;-69
2021/11/29 10:38:53;;;;;;;23.58;14.85;;;12.00;94.40;;;;;;5072341;28;20127;-69
2021/11/29 10:41:25;;;;;;;20.38;12.90;;;12.00;94.70;;;;;;5074628;28;20035;-68
2021/11/29 10:43:51;;;;;;;18.67;12.18;;;12.00;94.90;;;;;;5075013;28;20040;-66
2021/11/29 10:46:27;;;;;;;19.02;13.00;;;12.00;95.30;;;;;;5074775;28;20144;-68
2021/11/29 10:48:55;;;;;;;23.60;13.43;;;12.00;95.40;;;;;;5074437;28;20126;-67
2021/11/29 10:51:22;;;;;;;19.55;13.00;;;12.00;95.60;;;;;;5074296;28;20017;-68
2021/11/29 10:53:55;;;;;;;21.95;14.07;;;12.00;95.70;;;;;;5074245;28;20036;-68
2021/11/29 10:56:23;;;;;;;18.00;11.77;;;11.90;95.80;;;;;;5074474;28;20056;-67
2021/11/29 10:58:51;;;;;;;21.95;12.00;;;12.00;96.10;;;;;;5074093;28;20387;-68
2021/11/29 11:01:30;;;;;;;18.83;12.30;;;12.00;96.30;;;;;;5074172;28;20032;-67
2021/11/29 11:03:56;;;;;;;17.13;11.63;;;12.00;96.50;;;;;;5074179;28;20028;-68
2021/11/29 11:06:33;;;;;;;14.27;10.13;;;12.00;96.50;;;;;;5074052;28;20020;-68
2021/11/29 11:08:59;;;;;;;14.95;10.30;;;12.00;96.60;;;;;;5073926;28;20025;-69
2021/11/29 11:11:44;;;;;;;16.10;10.32;;;12.00;96.50;;;;;;5073951;28;20021;-68
2021/11/29 11:14:38;;;;;;;16.35;11.25;;;12.00;96.30;;;;;;5073950;28;20028;-68
2021/11/29 11:17:05;;;;;;;15.98;10.65;;;12.00;96.20;;;;;;5072530;28;20040;-69
2021/11/29 11:19:41;;;;;;;17.02;11.80;;;11.90;96.40;;;;;;5074124;28;20811;-69
2021/11/29 11:22:09;;;;;;;22.35;14.90;;;11.90;96.40;;;;;;5073769;28;20029;-69
2021/11/29 11:24:38;;;;;;;18.63;13.45;;;11.80;96.20;;;;;;5073698;28;20506;-68
2021/11/29 11:27:05;;;;;;;19.40;14.35;;;11.70;96.30;;;;;;5073558;28;20074;-68
2021/11/29 11:29:57;;;;;;;18.50;13.75;;;11.70;96.40;;;;;;5073699;28;20027;-69
2021/11/29 11:32:29;;;;;;;21.73;15.20;;;11.60;96.50;;;;;;5073666;28;20363;-69
2021/11/29 11:34:58;;;;;;;18.85;13.38;;;11.60;96.80;;;;;;5073800;28;20021;-67
2021/11/29 11:37:30;;;;;;;18.48;13.35;;;11.60;96.90;;;;;;5073620;28;20036;-68
2021/11/29 11:39:56;;;;;;;16.55;11.90;;;11.50;96.90;;;;;;5073421;28;20021;-68
2021/11/29 11:42:23;;;;;;;14.90;10.73;;;11.50;96.70;;;;;;5073486;28;20509;-69
2021/11/29 11:44:51;;;;;;;15.02;10.88;;;11.40;96.80;;;;;;5073366;28;20092;-68
2021/11/29 11:47:18;;;;;;;15.82;11.13;;;11.40;97.00;;;;;;5073311;28;20108;-69
2021/11/29 11:49:46;;;;;;;13.48;9.65;;;11.40;97.00;;;;;;5072355;28;20066;-68
2021/11/29 11:52:19;;;;;;;14.20;10.00;;;11.40;97.20;;;;;;5073354;28;20441;-68
2021/11/29 11:54:45;;;;;;;17.42;12.15;;;11.30;97.40;;;;;;5073049;28;20044;-69
2021/11/29 11:57:18;;;;;;;15.95;11.48;;;11.40;97.50;;;;;;5073271;28;20024;-68
2021/11/29 12:00:00;;;;;;;15.48;11.95;;;11.30;97.50;;;;;;5073222;28;20349;-70
2021/11/29 12:03:10;;;;;;;20.98;14.20;;;11.30;97.50;;;;;;5073154;28;20082;-69
2021/11/29 12:05:45;;;;;;;18.75;12.80;;;11.30;97.30;;;;;;5105713;28;20024;-69
2021/11/29 12:08:32;;;;;;;14.43;10.43;;;11.30;97.60;;;;;;5073342;28;20433;-69
2021/11/29 12:10:58;;;;;;;14.95;10.60;;;11.30;97.40;;;;;;5073605;28;20074;-68
2021/11/29 12:13:25;;;;;;;16.92;10.88;;;11.30;97.80;;;;;;5072913;28;20435;-68
2021/11/29 12:15:56;;;;;;;22.85;15.60;;;11.40;97.90;;;;;;5072646;28;20021;-69
2021/11/29 12:18:40;;;;;;;17.83;11.98;;;11.40;97.80;;;;;;5072847;28;20032;-68
2021/11/29 12:21:13;;;;;;;14.30;10.63;;;11.40;98.00;;;;;;5072725;28;20445;-69
2021/11/29 12:23:44;;;;;;;20.40;14.60;;;11.40;98.00;;;;;;5072726;28;20101;-68
2021/11/29 12:26:10;;;;;;;18.65;13.85;;;11.40;97.90;;;;;;5072677;28;20036;-70
2021/11/29 12:28:41;;;;;;;18.83;13.95;;;11.50;97.90;;;;;;5072568;28;20043;-68
2021/11/29 12:31:42;;;;;;;20.85;14.68;;;11.50;98.00;;;;;;5072512;28;20023;-68
2021/11/29 12:34:11;;;;;;;27.17;18.15;;;11.50;97.70;;;;;;5030296;28;20026;-68